Time;durP1;ratioP1;P1;durP2;ratioP2;P2;SDS_P1;SDS_P2;PMS_P1;PMS_P2;Temp;Humidity;BMP_temperature;BMP_pressure;BME280_temperature;BME280_humidity;BME280_pressure;Samples;Min_cycle;Max_cycle;Signal;HPM_P1;HPM_P2
2022/06/13 00:02:25;;;;;;;20.58;5.38;;;;;;;29.10;59.64;97583.03;4854342;29;20064;-64
2022/06/13 00:05:14;;;;;;;22.83;5.80;;;;;;;29.06;58.36;97581.75;4854539;29;20049;-64
2022/06/13 00:07:56;;;;;;;25.10;6.10;;;;;;;29.07;58.51;97586.03;4854334;29;20057;-63
2022/06/13 00:10:51;;;;;;;16.92;5.38;;;;;;;29.11;62.73;97582.84;4854169;29;20077;-64
2022/06/13 00:13:27;;;;;;;21.83;5.82;;;;;;;29.14;62.10;97592.22;4868557;29;20113;-64
2022/06/13 00:16:24;;;;;;;16.02;5.55;;;;;;;29.11;61.26;97596.09;4854448;29;20130;-64
2022/06/13 00:19:01;;;;;;;19.88;6.35;;;;;;;29.13;58.07;97596.75;4854342;29;20050;-64
2022/06/13 00:21:49;;;;;;;21.13;6.80;;;;;;;29.13;61.56;97598.56;4854117;29;20053;-64
2022/06/13 00:24:31;;;;;;;16.05;5.50;;;;;;;29.19;62.44;97601.28;4853474;29;20133;-64
2022/06/13 00:27:20;;;;;;;25.58;6.15;;;;;;;29.18;62.73;97597.00;4852406;29;20876;-64
2022/06/13 00:30:12;;;;;;;26.17;5.80;;;;;;;29.16;57.18;97601.66;4852067;29;20049;-64
2022/06/13 00:32:54;;;;;;;28.17;6.60;;;;;;;29.20;61.49;97610.91;4852791;29;20154;-64
2022/06/13 00:35:43;;;;;;;20.95;6.28;;;;;;;29.24;63.18;97600.72;4847287;29;20046;-64
2022/06/13 00:38:25;;;;;;;14.73;5.30;;;;;;;29.25;62.72;97608.47;4850797;29;20113;-64
2022/06/13 00:41:23;;;;;;;16.05;5.65;;;;;;;29.26;61.07;97614.63;4852666;29;20064;-64
2022/06/13 00:44:25;;;;;;;19.58;6.60;;;;;;;29.33;63.29;97617.31;4853563;29;20053;-64
2022/06/13 00:47:17;;;;;;;16.73;5.75;;;;;;;29.34;63.41;97617.13;4851789;29;20064;-64
2022/06/13 00:50:02;;;;;;;21.50;6.07;;;;;;;29.40;63.03;97623.53;4853586;29;20120;-64
2022/06/13 00:52:57;;;;;;;19.33;5.93;;;;;;;29.43;62.89;97623.16;4853487;29;20056;-63
2022/06/13 00:55:53;;;;;;;19.00;6.57;;;;;;;29.45;62.97;97629.13;4852624;29;20309;-65
2022/06/13 00:58:48;;;;;;;20.98;5.82;;;;;;;29.49;61.19;97633.84;4852697;29;20077;-64
2022/06/13 01:01:32;;;;;;;15.07;5.88;;;;;;;29.57;62.21;97643.50;4853239;29;20054;-63
2022/06/13 01:04:21;;;;;;;19.75;7.68;;;;;;;29.64;63.88;97642.53;4853931;29;20057;-63
2022/06/13 01:07:04;;;;;;;15.60;5.47;;;;;;;29.70;66.03;97635.63;4854580;29;20053;-63
2022/06/13 01:12:55;;;;;;;16.23;5.68;;;;;;;29.81;65.77;97632.47;4854241;29;20052;-64
2022/06/13 01:16:04;;;;;;;24.45;5.60;;;;;;;29.88;65.46;97635.97;4852595;29;20117;-63
2022/06/13 01:18:55;;;;;;;21.50;7.13;;;;;;;29.94;65.06;97634.41;4853716;29;20049;-63
2022/06/13 01:21:51;;;;;;;22.48;6.00;;;;;;;30.01;65.39;97640.63;4853161;29;20061;-63
2022/06/13 01:25:05;;;;;;;19.25;6.85;;;;;;;30.09;68.58;97637.81;4854455;29;20672;-64
2022/06/13 01:28:28;;;;;;;15.10;6.85;;;;;;;30.17;66.85;97648.25;4859240;29;20057;-64
2022/06/13 01:31:26;;;;;;;27.73;8.32;;;;;;;30.30;68.01;97656.31;4843706;29;20133;-64
2022/06/13 01:34:34;;;;;;;25.27;7.93;;;;;;;30.39;65.23;97664.97;4851992;29;20133;-64
2022/06/13 01:37:34;;;;;;;22.73;6.85;;;;;;;30.49;66.90;97672.59;4840132;29;20136;-64
2022/06/13 01:40:48;;;;;;;21.38;7.32;;;;;;;30.57;66.04;97677.78;4874196;29;20074;-64
2022/06/13 01:44:15;;;;;;;20.77;7.00;;;;;;;30.65;63.21;97681.06;4848115;29;20145;-64
2022/06/13 01:47:14;;;;;;;23.70;7.97;;;;;;;30.83;68.83;97675.22;4853098;29;20105;-64
2022/06/13 01:49:55;;;;;;;24.15;7.25;;;;;;;31.10;66.99;97684.16;4852296;29;20419;-64
2022/06/13 01:53:08;;;;;;;21.45;7.70;;;;;;;31.27;69.19;97695.25;4851646;29;20164;-64
2022/06/13 01:55:53;;;;;;;22.33;7.05;;;;;;;31.58;64.65;97698.19;4851918;29;20100;-64
2022/06/13 01:58:55;;;;;;;19.42;6.28;;;;;;;31.69;63.67;97704.78;4851125;29;20077;-65
2022/06/13 02:01:42;;;;;;;19.02;6.40;;;;;;;31.81;60.11;97700.47;4852479;29;20757;-64
2022/06/13 02:05:32;;;;;;;27.55;7.40;;;;;;;32.14;60.74;97697.81;4852757;29;20407;-65
2022/06/13 02:08:34;;;;;;;30.73;7.60;;;;;;;32.36;62.32;97701.06;4832938;29;20050;-64
2022/06/13 02:11:40;;;;;;;22.42;7.97;;;;;;;32.46;61.85;97707.63;4838802;29;20049;-64
2022/06/13 02:14:35;;;;;;;26.65;7.20;;;;;;;32.72;63.70;97701.44;4852030;29;20096;-64
2022/06/13 02:17:35;;;;;;;22.35;7.18;;;;;;;32.66;64.51;97712.88;4833441;29;20144;-63
2022/06/13 02:20:23;;;;;;;29.20;8.02;;;;;;;32.81;64.50;97710.00;4842794;29;20049;-63
2022/06/13 02:23:22;;;;;;;27.13;7.95;;;;;;;32.89;63.07;97717.75;4851094;29;20057;-64
2022/06/13 02:26:05;;;;;;;38.45;8.00;;;;;;;33.03;65.56;97722.88;4863152;29;20673;-63
2022/06/13 02:29:01;;;;;;;24.30;8.95;;;;;;;33.30;57.25;97720.06;4857440;29;20073;-63
2022/06/13 02:31:55;;;;;;;40.47;8.70;;;;;;;33.67;55.25;97726.44;4851750;29;20140;-63
2022/06/13 02:34:43;;;;;;;37.78;7.68;;;;;;;34.00;53.38;97724.38;4850958;29;20049;-63
2022/06/13 02:37:57;;;;;;;38.35;8.52;;;;;;;34.16;52.63;97731.03;4831301;29;20161;-64
2022/06/13 02:41:10;;;;;;;27.05;7.45;;;;;;;34.34;51.52;97733.75;4845843;29;20492;-63
2022/06/13 02:44:12;;;;;;;32.10;8.20;;;;;;;34.61;49.38;97736.16;4849692;29;20164;-64
2022/06/13 02:47:00;;;;;;;24.67;7.13;;;;;;;34.71;51.79;97736.47;4850927;29;20061;-64
2022/06/13 02:50:19;;;;;;;33.50;9.60;;;;;;;34.96;46.28;97736.44;4880083;29;20586;-64
2022/06/13 02:53:17;;;;;;;24.05;6.38;;;;;;;35.08;48.50;97746.16;4850023;29;20050;-64
2022/06/13 02:56:16;;;;;;;32.42;7.53;;;;;;;35.10;48.50;97746.75;4850133;29;20082;-64
2022/06/13 02:59:44;;;;;;;33.72;7.10;;;;;;;35.35;51.17;97751.22;4833756;29;20046;-64
2022/06/13 03:02:53;;;;;;;29.80;8.75;;;;;;;35.49;45.69;97748.13;4849267;29;20069;-64
2022/06/13 03:05:59;;;;;;;43.83;9.55;;;;;;;35.57;50.40;97755.03;4850376;29;20113;-64
2022/06/13 03:09:10;;;;;;;35.92;8.93;;;;;;;35.69;49.84;97753.19;4851536;29;20053;-64
2022/06/13 03:12:05;;;;;;;39.20;9.10;;;;;;;35.94;42.11;97761.09;4835241;29;20365;-64
2022/06/13 03:15:01;;;;;;;31.60;9.10;;;;;;;36.21;46.95;97754.28;4834359;29;20513;-64
2022/06/13 03:18:03;;;;;;;32.63;9.27;;;;;;;36.66;43.78;97751.84;4850995;29;20064;-64
2022/06/13 03:20:48;;;;;;;30.50;9.15;;;;;;;36.67;41.95;97764.22;4855629;29;20050;-65
2022/06/13 03:23:57;;;;;;;34.35;9.63;;;;;;;36.74;42.47;97767.59;4855125;29;20057;-63
2022/06/13 03:26:52;;;;;;;24.83;9.25;;;;;;;36.97;41.89;97756.00;4860353;29;20065;-64
2022/06/13 03:29:53;;;;;;;30.42;8.95;;;;;;;37.09;41.98;97762.16;4855326;29;20049;-64
2022/06/13 03:35:59;;;;;;;32.83;8.68;;;;;;;37.15;40.84;97768.47;4854907;29;20546;-64
2022/06/13 03:38:55;;;;;;;40.60;10.35;;;;;;;37.48;41.44;97759.72;4853954;29;20052;-64
2022/06/13 03:41:48;;;;;;;38.35;8.77;;;;;;;37.24;41.68;97767.06;4855532;29;20486;-64
2022/06/13 03:44:56;;;;;;;35.83;9.98;;;;;;;37.15;42.15;97768.47;4853507;29;20147;-64
2022/06/13 03:47:46;;;;;;;26.85;10.30;;;;;;;37.60;41.31;97775.84;4855523;29;20042;-64
2022/06/13 03:51:00;;;;;;;34.90;10.05;;;;;;;37.84;38.58;97769.25;4857012;29;20376;-64
2022/06/13 03:53:49;;;;;;;34.78;10.45;;;;;;;37.85;42.92;97773.59;4855899;29;20389;-64
2022/06/13 03:56:48;;;;;;;32.30;10.00;;;;;;;37.84;42.97;97778.16;4855649;29;20148;-64
2022/06/13 03:59:50;;;;;;;44.35;10.82;;;;;;;37.27;41.76;97766.59;4854309;29;20057;-64
2022/06/13 04:02:42;;;;;;;38.67;10.27;;;;;;;37.61;44.29;97766.69;4855658;29;20080;-64
2022/06/13 04:05:32;;;;;;;43.97;14.80;;;;;;;37.61;43.23;97761.31;4855185;29;20054;-64
2022/06/13 04:08:22;;;;;;;48.67;14.82;;;;;;;37.65;41.50;97759.78;4868510;29;20057;-64
2022/06/13 04:11:37;;;;;;;43.08;12.93;;;;;;;37.54;39.08;97764.94;4873557;29;20045;-64
2022/06/13 04:14:47;;;;;;;52.92;14.63;;;;;;;37.69;43.65;97755.53;4872565;29;20124;-64
2022/06/13 04:18:06;;;;;;;43.85;14.80;;;;;;;37.76;40.39;97756.22;4872464;29;20053;-65
2022/06/13 04:21:05;;;;;;;43.25;13.70;;;;;;;38.04;45.35;97758.03;4886989;29;20198;-66
2022/06/13 04:24:02;;;;;;;41.83;14.18;;;;;;;37.88;42.24;97759.66;4858257;29;20152;-65
2022/06/13 04:27:19;;;;;;;40.38;14.52;;;;;;;38.09;44.82;97760.84;4872704;29;20045;-63
2022/06/13 04:30:22;;;;;;;37.90;14.25;;;;;;;38.47;43.28;97757.41;4869048;29;20144;-63
2022/06/13 04:33:41;;;;;;;46.47;14.52;;;;;;;38.14;38.29;97761.75;4873324;29;20053;-65
2022/06/13 04:36:38;;;;;;;56.15;15.15;;;;;;;38.48;44.33;97756.31;4851673;29;20152;-66
2022/06/13 04:39:18;;;;;;;51.50;16.55;;;;;;;38.34;41.83;97755.84;4853647;29;20217;-64
2022/06/13 04:42:09;;;;;;;45.75;16.13;;;;;;;38.34;39.85;97757.72;4853691;29;20121;-66
2022/06/13 04:45:06;;;;;;;49.78;17.88;;;;;;;38.38;40.06;97756.19;4853980;29;20064;-66
2022/06/13 04:47:50;;;;;;;67.35;21.50;;;;;;;38.33;41.42;97758.78;4824938;29;20385;-66
2022/06/13 04:50:48;;;;;;;83.28;30.50;;;;;;;37.97;39.85;97752.81;4834292;29;20474;-68
2022/06/13 04:53:54;;;;;;;89.88;31.92;;;;;;;38.31;42.67;97761.75;4833919;29;20475;-63
2022/06/13 04:56:30;;;;;;;105.63;47.78;;;;;;;38.09;39.44;97758.97;4834057;29;20076;-65
2022/06/13 04:59:19;;;;;;;;;;;;;;;38.17;40.96;97755.03;4831104;29;20152;-63
2022/06/13 05:02:03;;;;;;;88.03;36.63;;;;;;;38.10;38.40;97757.09;4834707;29;19952;-64
2022/06/13 05:04:52;;;;;;;91.18;34.00;;;;;;;38.35;40.36;97764.75;4833831;29;20581;-64
2022/06/13 05:07:41;;;;;;;73.32;32.15;;;;;;;38.28;39.73;97763.03;4834194;29;20561;-65
2022/06/13 05:10:29;;;;;;;73.35;31.23;;;;;;;38.51;42.05;97761.25;4833956;29;20054;-66
2022/06/13 05:13:18;;;;;;;66.20;28.90;;;;;;;38.47;39.52;97760.91;4822370;29;20114;-65
2022/06/13 05:16:20;;;;;;;67.55;31.52;;;;;;;38.47;35.89;97754.72;4817772;29;20081;-64
2022/06/13 05:19:16;;;;;;;82.00;33.38;;;;;;;38.78;38.74;97754.09;4833453;29;20046;-64
2022/06/13 05:22:44;;;;;;;76.90;34.75;;;;;;;38.91;38.23;97756.41;4834684;29;20050;-64
2022/06/13 05:25:53;;;;;;;84.00;36.65;;;;;;;38.77;34.85;97759.72;4840577;29;20513;-63
2022/06/13 05:28:37;;;;;;;90.70;36.53;;;;;;;38.76;38.92;97764.31;4829583;29;20138;-63
2022/06/13 05:31:25;;;;;;;73.63;34.97;;;;;;;38.79;38.40;97763.81;4832328;29;20069;-65
2022/06/13 05:34:35;;;;;;;80.65;34.53;;;;;;;38.82;35.92;97766.00;4829766;29;20427;-64
2022/06/13 05:37:20;;;;;;;73.53;32.70;;;;;;;38.93;41.98;97764.25;4832751;29;20193;-65
2022/06/13 05:40:18;;;;;;;80.95;32.10;;;;;;;38.86;37.77;97769.84;4833473;29;20186;-64
2022/06/13 05:43:00;;;;;;;64.03;27.55;;;;;;;38.76;37.01;97760.78;4833522;29;20061;-66
2022/06/13 05:45:56;;;;;;;63.60;25.80;;;;;;;38.89;39.18;97769.31;4831429;29;20463;-65
2022/06/13 05:48:51;;;;;;;60.15;23.83;;;;;;;38.93;37.15;97762.38;4832164;29;20054;-65
2022/06/13 05:51:34;;;;;;;72.47;24.08;;;;;;;38.55;36.50;97763.22;4831827;29;20110;-64
2022/06/13 05:54:29;;;;;;;;;;;;;;;38.51;34.31;97750.47;4834316;29;20186;-65
2022/06/13 05:57:05;;;;;;;54.25;19.05;;;;;;;38.72;37.90;97751.56;4814808;29;19946;-64
2022/06/13 05:59:54;;;;;;;58.92;20.15;;;;;;;38.81;37.38;97750.06;4817096;29;20650;-63
2022/06/13 06:02:44;;;;;;;48.42;18.30;;;;;;;38.82;40.07;97743.63;4819371;29;20058;-64
2022/06/13 06:05:40;;;;;;;46.40;17.35;;;;;;;38.91;37.29;97751.03;4834587;29;20049;-64
2022/06/13 06:08:20;;;;;;;49.15;16.98;;;;;;;39.03;37.25;97749.03;4834184;29;20050;-64
2022/06/13 06:11:15;;;;;;;46.97;17.52;;;;;;;39.21;38.89;97749.78;4834428;29;20049;-64
2022/06/13 06:13:51;;;;;;;52.08;16.10;;;;;;;39.16;38.40;97736.25;4820203;29;20756;-63
2022/06/13 06:16:40;;;;;;;;;;;;;;;39.17;37.64;97740.59;4833467;29;20100;-63
2022/06/13 06:19:29;;;;;;;47.15;13.65;;;;;;;39.25;35.85;97746.34;4833810;29;20019;-64
2022/06/13 06:22:11;;;;;;;;;;;;;;;39.19;37.02;97743.84;4834594;29;20070;-64
2022/06/13 06:24:59;;;;;;;45.45;14.38;;;;;;;39.04;37.67;97734.50;4838052;29;19928;-64
2022/06/13 06:27:54;;;;;;;37.67;12.95;;;;;;;39.27;37.69;97728.00;4852780;29;20061;-64
2022/06/13 06:30:30;;;;;;;41.00;13.65;;;;;;;39.23;37.67;97726.09;4852701;29;20114;-64
2022/06/13 06:33:21;;;;;;;45.78;13.18;;;;;;;39.19;36.20;97731.19;4852563;29;20740;-63
2022/06/13 06:36:10;;;;;;;39.63;13.40;;;;;;;38.87;34.35;97722.97;4852526;29;20813;-63
2022/06/13 06:38:52;;;;;;;36.33;12.50;;;;;;;39.07;37.43;97716.19;4852790;29;20053;-64
2022/06/13 06:41:42;;;;;;;37.05;11.80;;;;;;;39.11;35.48;97709.25;4840091;29;20630;-63
2022/06/13 06:44:34;;;;;;;38.58;10.50;;;;;;;39.02;35.22;97703.50;4836655;29;20064;-64
2022/06/13 06:47:29;;;;;;;31.23;11.82;;;;;;;39.15;38.40;97697.72;4848542;29;20071;-63
2022/06/13 06:50:21;;;;;;;28.27;11.05;;;;;;;39.14;37.28;97701.47;4852044;29;20079;-63
2022/06/13 06:53:11;;;;;;;40.13;11.77;;;;;;;39.33;37.56;97696.56;4849168;29;20069;-66
2022/06/13 07:02:01;;;;;;;43.95;11.05;;;;;;;39.28;34.21;97691.91;4852106;29;20160;-64
2022/06/13 07:04:49;;;;;;;35.70;11.30;;;;;;;39.06;35.06;97682.22;4852645;29;20044;-64
2022/06/13 07:07:31;;;;;;;34.88;10.38;;;;;;;39.29;39.81;97676.53;4851509;29;20045;-65
2022/06/13 07:10:21;;;;;;;30.40;9.60;;;;;;;39.49;37.19;97678.66;4851293;29;20438;-65
2022/06/13 07:13:03;;;;;;;;;;;;;;;39.54;36.59;97673.31;4852710;29;20149;-65
2022/06/13 07:15:51;;;;;;;52.40;10.85;;;;;;;39.51;36.40;97674.66;4851896;29;19990;-66
2022/06/13 07:18:42;;;;;;;42.40;9.93;;;;;;;39.47;34.15;97672.72;4851743;29;20152;-65
2022/06/13 07:21:24;;;;;;;51.50;25.17;;;;;;;39.42;36.99;97665.41;4850861;29;20053;-64
2022/06/13 07:24:14;;;;;;;52.13;14.00;;;;;;;39.38;34.58;97657.00;4851774;29;20132;-63
2022/06/13 07:26:56;;;;;;;;;;;;;;;39.55;36.48;97654.19;4871359;29;20051;-64
2022/06/13 07:29:45;;;;;;;35.47;9.43;;;;;;;39.58;36.87;97650.97;4870455;29;20605;-64
2022/06/13 07:32:32;;;;;;;42.17;9.68;;;;;;;39.42;34.70;97646.53;4869638;29;20060;-65
2022/06/13 07:35:29;;;;;;;49.42;9.68;;;;;;;39.25;35.83;97643.09;4870364;29;20125;-64
2022/06/13 07:38:16;;;;;;;35.65;9.18;;;;;;;39.26;31.91;97639.31;4856398;29;20049;-64
2022/06/13 07:41:06;;;;;;;39.67;9.65;;;;;;;39.30;34.33;97635.84;4850019;29;20117;-65
2022/06/13 07:43:49;;;;;;;;;;;;;;;39.33;34.45;97629.16;4852047;29;20049;-64
2022/06/13 07:46:46;;;;;;;43.88;9.25;;;;;;;39.44;32.79;97622.78;4846612;29;19927;-65
2022/06/13 07:49:35;;;;;;;41.53;10.77;;;;;;;39.38;33.72;97621.94;4851241;29;20046;-63
2022/06/13 07:52:24;;;;;;;38.38;11.73;;;;;;;39.55;35.73;97616.41;4849239;29;20053;-64
2022/06/13 07:55:07;;;;;;;50.95;11.13;;;;;;;39.55;37.54;97610.22;4853575;29;20113;-64
2022/06/13 07:57:55;;;;;;;50.35;9.98;;;;;;;39.54;36.75;97620.19;4855151;29;20705;-63
2022/06/13 08:00:37;;;;;;;50.90;13.32;;;;;;;39.52;34.15;97611.53;4855342;29;20053;-63
2022/06/13 08:03:30;;;;;;;36.28;9.90;;;;;;;39.47;37.51;97608.81;4854768;29;20482;-64
2022/06/13 08:06:13;;;;;;;47.97;10.50;;;;;;;39.52;35.85;97611.53;4855042;29;20152;-64
2022/06/13 08:09:01;;;;;;;31.48;10.50;;;;;;;39.57;34.43;97598.09;4855728;29;20065;-65
2022/06/13 08:11:47;;;;;;;37.78;10.35;;;;;;;39.60;35.97;97588.66;4855187;29;20113;-64
2022/06/13 08:14:36;;;;;;;44.50;10.43;;;;;;;39.63;35.82;97591.66;4855163;29;20054;-64
2022/06/13 08:17:20;;;;;;;48.22;10.93;;;;;;;39.43;34.31;97590.72;4851640;29;20160;-64
2022/06/13 08:20:09;;;;;;;40.72;11.38;;;;;;;39.47;35.24;97591.81;4854853;29;20423;-65
2022/06/13 08:23:00;;;;;;;45.53;10.70;;;;;;;39.25;36.98;97584.59;4854331;29;20463;-63
2022/06/13 08:25:41;;;;;;;42.70;10.13;;;;;;;39.42;37.62;97578.28;4863175;29;20084;-64
2022/06/13 08:28:30;;;;;;;37.78;9.45;;;;;;;39.42;39.54;97572.91;4857743;29;20120;-64
2022/06/13 08:31:19;;;;;;;35.10;10.10;;;;;;;39.24;34.59;97569.50;4853250;29;20057;-64
2022/06/13 08:34:08;;;;;;;47.13;10.95;;;;;;;39.25;34.71;97570.31;4853900;29;20057;-64
2022/06/13 08:36:51;;;;;;;42.65;9.45;;;;;;;39.29;35.12;97574.91;4854507;29;20046;-64
2022/06/13 08:39:40;;;;;;;35.67;9.70;;;;;;;39.25;35.04;97575.69;4854796;29;20049;-64
2022/06/13 08:42:30;;;;;;;53.57;12.30;;;;;;;39.22;35.79;97574.31;4865928;29;20502;-64
2022/06/13 08:45:23;;;;;;;43.30;10.48;;;;;;;39.25;35.81;97570.31;4852899;29;20055;-64
2022/06/13 08:48:14;;;;;;;;;;;;;;;39.24;37.03;97565.97;4853347;29;20060;-65
2022/06/13 08:51:08;;;;;;;50.95;9.43;;;;;;;39.00;33.46;97562.81;4854389;29;19928;-65
2022/06/13 08:54:05;;;;;;;36.53;7.93;;;;;;;38.97;36.20;97556.03;4853311;29;20057;-64
2022/06/13 08:56:55;;;;;;;47.63;9.30;;;;;;;38.89;35.72;97553.78;4854185;29;20054;-63
2022/06/13 09:00:03;;;;;;;41.97;8.60;;;;;;;38.77;35.77;97544.22;4854783;29;20486;-65
2022/06/13 09:03:09;;;;;;;41.80;8.95;;;;;;;38.77;34.16;97546.94;4857398;29;20045;-63
2022/06/13 09:06:30;;;;;;;56.95;11.13;;;;;;;38.90;35.19;97549.19;4854567;29;20052;-65
2022/06/13 09:09:14;;;;;;;34.20;9.27;;;;;;;38.94;34.88;97540.41;4853822;29;20458;-65
2022/06/13 09:12:43;;;;;;;51.40;11.07;;;;;;;38.97;34.09;97533.66;4853685;29;20140;-66
2022/06/13 09:15:21;;;;;;;50.03;10.18;;;;;;;38.90;34.92;97527.63;4853901;29;20061;-69
2022/06/13 09:18:40;;;;;;;35.22;8.75;;;;;;;38.83;34.36;97533.25;4852712;29;20169;-68
2022/06/13 09:21:38;;;;;;;32.90;9.05;;;;;;;38.83;37.69;97522.47;4851443;29;20156;-67
2022/06/13 09:25:02;;;;;;;48.28;10.30;;;;;;;38.73;34.27;97525.06;4853343;29;20065;-72
2022/06/13 09:27:46;;;;;;;38.53;8.75;;;;;;;38.72;36.48;97520.72;4812588;29;20050;-68
2022/06/13 09:30:48;;;;;;;39.20;9.15;;;;;;;38.78;33.33;97514.34;4837262;29;20128;-68
2022/06/13 09:33:33;;;;;;;25.77;8.02;;;;;;;38.77;37.36;97504.63;4837227;29;20140;-68
2022/06/13 09:36:42;;;;;;;45.55;9.13;;;;;;;38.83;34.94;97503.59;4855578;29;20454;-71
2022/06/13 09:39:18;;;;;;;42.67;9.98;;;;;;;38.79;35.93;97501.69;4857311;29;20378;-70
2022/06/13 09:42:27;;;;;;;;;;;;;;;38.80;37.26;97500.59;4854577;29;20053;-70
2022/06/13 09:45:45;;;;;;;54.78;10.50;;;;;;;38.77;38.85;97485.78;4852697;29;19928;-70
2022/06/13 09:48:55;;;;;;;49.25;8.95;;;;;;;38.74;36.72;97482.78;4851002;29;20053;-69
2022/06/13 09:52:26;;;;;;;54.00;8.77;;;;;;;38.73;37.53;97483.84;4867226;29;20041;-68
2022/06/13 09:55:30;;;;;;;47.90;7.72;;;;;;;38.66;37.45;97478.66;4870796;29;20076;-68
2022/06/13 09:58:44;;;;;;;45.50;8.90;;;;;;;38.65;35.69;97460.88;4871545;29;20068;-69
2022/06/13 10:01:33;;;;;;;36.15;7.90;;;;;;;38.63;35.73;97463.03;4871145;29;20045;-69
2022/06/13 10:04:26;;;;;;;43.00;9.07;;;;;;;38.65;36.37;97456.31;4869783;29;20136;-69
2022/06/13 10:07:10;;;;;;;52.65;8.52;;;;;;;38.64;36.55;97441.22;4870926;29;20453;-69
2022/06/13 10:10:10;;;;;;;42.75;7.20;;;;;;;38.58;35.21;97446.81;4871734;29;20148;-69
2022/06/13 10:13:14;;;;;;;53.85;8.60;;;;;;;38.65;34.14;97447.41;4871847;29;20603;-69
2022/06/13 10:16:37;;;;;;;36.40;7.22;;;;;;;38.50;38.58;97442.69;4869824;29;20076;-70
2022/06/13 10:19:32;;;;;;;36.42;7.45;;;;;;;38.40;35.42;97421.03;4870651;29;20460;-70
2022/06/13 10:22:35;;;;;;;41.85;8.48;;;;;;;38.42;37.11;97418.09;4871165;29;20045;-70
2022/06/13 10:25:52;;;;;;;37.50;8.10;;;;;;;38.34;37.44;97413.16;4876233;29;20119;-70
2022/06/13 10:29:00;;;;;;;49.22;9.40;;;;;;;38.34;35.32;97405.91;4872999;29;20413;-69
2022/06/13 10:32:08;;;;;;;36.28;8.35;;;;;;;38.40;35.32;97414.81;4890566;29;20052;-69
2022/06/13 10:35:32;;;;;;;34.97;7.80;;;;;;;38.30;38.28;97396.72;4860676;29;20055;-69
2022/06/13 10:38:39;;;;;;;35.05;8.00;;;;;;;38.25;37.56;97392.09;4870665;29;20056;-68
2022/06/13 10:41:31;;;;;;;34.95;7.72;;;;;;;38.22;37.13;97395.31;4870889;29;20056;-68
2022/06/13 10:44:17;;;;;;;22.50;6.90;;;;;;;38.21;36.68;97384.78;4861821;29;20076;-68
2022/06/13 10:47:39;;;;;;;28.50;8.13;;;;;;;38.17;38.21;97376.41;4854098;29;20057;-69
2022/06/13 10:50:36;;;;;;;46.55;7.95;;;;;;;38.20;36.87;97365.13;4865161;29;20077;-69
2022/06/13 10:53:46;;;;;;;37.05;7.80;;;;;;;38.15;34.21;97354.34;4834135;29;20534;-68
2022/06/13 10:56:27;;;;;;;41.65;8.25;;;;;;;38.15;34.25;97354.34;4832801;29;20361;-67
2022/06/13 10:59:29;;;;;;;51.53;8.80;;;;;;;38.17;34.66;97345.97;4833952;29;20046;-67
2022/06/13 11:02:25;;;;;;;43.20;6.55;;;;;;;38.25;33.77;97343.66;4834520;29;20050;-67
2022/06/13 11:05:32;;;;;;;27.42;7.25;;;;;;;38.21;36.45;97333.66;4821841;29;20127;-67
2022/06/13 11:08:14;;;;;;;34.05;8.63;;;;;;;38.17;35.87;97336.03;4833865;29;20057;-69
2022/06/13 11:11:14;;;;;;;24.80;6.18;;;;;;;38.12;37.55;97322.53;4817833;29;20474;-67
2022/06/13 11:14:03;;;;;;;39.92;6.93;;;;;;;38.18;32.77;97321.50;4833874;29;20607;-69
2022/06/13 11:23:01;;;;;;;44.60;7.55;;;;;;;37.94;35.42;97304.03;4833709;29;20106;-70
2022/06/13 11:25:50;;;;;;;33.70;7.75;;;;;;;37.89;34.25;97306.69;4835639;29;20064;-70
2022/06/13 11:28:39;;;;;;;37.97;6.60;;;;;;;38.06;33.19;97307.44;4831975;29;20077;-69
2022/06/13 11:31:29;;;;;;;30.75;6.32;;;;;;;37.93;35.69;97303.22;4823813;29;20125;-71
2022/06/13 11:34:32;;;;;;;;;;;;;;;37.85;36.91;97290.22;4837753;29;20064;-70
2022/06/13 11:37:27;;;;;;;37.08;6.50;;;;;;;37.75;35.38;97286.66;4820245;29;20353;-68
2022/06/13 11:40:17;;;;;;;31.60;7.05;;;;;;;37.80;35.61;97281.31;4836608;29;20129;-68
2022/06/13 11:43:05;;;;;;;30.13;6.90;;;;;;;37.73;36.00;97275.31;4836593;29;20069;-69
2022/06/13 11:46:00;;;;;;;32.38;7.32;;;;;;;37.77;33.43;97271.88;4835396;29;20046;-70
2022/06/13 11:48:55;;;;;;;27.65;6.05;;;;;;;37.78;33.51;97265.44;4819201;29;20056;-68
2022/06/13 11:51:56;;;;;;;34.40;6.32;;;;;;;37.72;35.19;97262.94;4817710;29;20122;-70
2022/06/13 11:55:02;;;;;;;48.35;9.75;;;;;;;37.75;33.91;97260.56;4816595;29;20057;-66
2022/06/13 11:58:01;;;;;;;32.42;6.30;;;;;;;37.71;35.65;97245.19;4836834;29;20053;-69
2022/06/13 12:01:01;;;;;;;34.55;6.05;;;;;;;37.66;36.31;97245.16;4849074;29;20054;-70
2022/06/13 12:03:43;;;;;;;33.95;7.05;;;;;;;37.68;34.97;97245.69;4834402;29;20081;-71
2022/06/13 12:06:36;;;;;;;48.55;7.35;;;;;;;37.68;33.94;97235.75;4833704;29;20053;-69
2022/06/13 12:09:40;;;;;;;29.67;6.07;;;;;;;37.62;34.13;97235.94;4836486;29;20149;-69
2022/06/13 12:12:25;;;;;;;45.35;6.82;;;;;;;37.65;32.27;97230.06;4803765;29;20058;-69
2022/06/13 12:15:19;;;;;;;27.75;6.05;;;;;;;37.70;31.02;97236.31;4805108;29;20054;-68
2022/06/13 12:18:16;;;;;;;29.40;6.82;;;;;;;37.70;34.32;97227.44;4819618;29;20378;-69
2022/06/13 12:21:20;;;;;;;35.22;6.65;;;;;;;37.64;34.37;97231.94;4818552;29;20078;-69
2022/06/13 12:24:46;;;;;;;35.60;5.88;;;;;;;37.58;32.57;97229.44;4827578;29;20062;-72
2022/06/13 12:28:04;;;;;;;22.13;5.78;;;;;;;37.59;33.20;97220.31;4820096;29;20162;-71
2022/06/13 12:31:47;;;;;;;25.85;6.03;;;;;;;37.52;33.97;97215.13;4818378;29;20646;-69
2022/06/13 12:34:48;;;;;;;22.85;7.20;;;;;;;37.39;33.99;97210.97;4765808;29;20755;-69
2022/06/13 12:37:58;;;;;;;35.33;5.95;;;;;;;37.47;32.11;97215.06;4817407;29;20050;-71
2022/06/13 12:41:13;;;;;;;31.33;5.82;;;;;;;37.36;33.17;97206.09;4819497;29;20055;-68
2022/06/13 12:44:24;;;;;;;30.35;6.32;;;;;;;37.34;33.71;97202.06;4816618;29;20054;-69
2022/06/13 12:47:34;;;;;;;29.73;5.93;;;;;;;37.33;34.46;97200.44;4817540;29;20093;-69
2022/06/13 12:50:47;;;;;;;36.58;5.65;;;;;;;37.27;32.90;97196.88;4817162;29;20133;-69
2022/06/13 12:54:00;;;;;;;36.25;6.03;;;;;;;37.31;32.41;97192.59;4827153;29;20098;-67
2022/06/13 12:57:35;;;;;;;25.90;5.45;;;;;;;37.21;33.08;97180.94;4820076;29;20049;-69
2022/06/13 13:00:55;;;;;;;26.38;7.03;;;;;;;37.12;33.90;97185.91;4827197;29;20145;-70
2022/06/13 13:03:56;;;;;;;27.75;6.35;;;;;;;37.02;34.28;97188.50;4826494;29;20499;-69
2022/06/13 13:07:16;;;;;;;39.47;5.72;;;;;;;36.90;35.18;97191.31;4827646;29;20630;-69
2022/06/13 13:09:59;;;;;;;31.13;6.13;;;;;;;36.84;35.87;97183.44;4824867;29;20081;-69
2022/06/13 13:12:54;;;;;;;36.83;7.95;;;;;;;36.74;35.55;97190.31;4827645;29;20058;-69
2022/06/13 13:16:03;;;;;;;38.50;5.68;;;;;;;36.61;36.27;97192.53;4839475;29;20057;-69
2022/06/13 13:19:25;;;;;;;28.45;6.15;;;;;;;36.47;34.64;97196.63;4833952;29;20064;-68
2022/06/13 13:22:21;;;;;;;34.30;6.45;;;;;;;36.39;36.54;97192.50;4801224;29;20054;-68
2022/06/13 13:25:17;;;;;;;34.78;6.38;;;;;;;36.48;34.87;97192.88;4832794;29;20511;-67
2022/06/13 13:28:24;;;;;;;31.42;6.80;;;;;;;36.53;34.40;97199.13;4824249;29;20564;-67
2022/06/13 13:31:37;;;;;;;38.30;7.30;;;;;;;36.46;34.10;97195.81;4829026;29;20126;-68
2022/06/13 13:34:44;;;;;;;38.45;6.60;;;;;;;36.40;34.18;97202.16;4798204;29;20078;-67
2022/06/13 13:37:41;;;;;;;41.60;6.80;;;;;;;36.28;34.76;97202.25;4829532;29;20062;-67
2022/06/13 13:40:59;;;;;;;33.65;7.65;;;;;;;36.15;36.65;97194.53;4834989;29;20053;-67
2022/06/13 13:43:59;;;;;;;29.67;6.57;;;;;;;36.06;38.26;97196.00;4832454;29;20107;-70
2022/06/13 13:46:44;;;;;;;26.48;6.25;;;;;;;35.93;39.27;97194.44;4822572;29;20061;-68
2022/06/13 13:49:50;;;;;;;21.63;6.63;;;;;;;35.76;37.19;97193.63;4810289;29;20050;-67
2022/06/13 13:52:52;;;;;;;22.48;6.57;;;;;;;35.74;36.98;97197.63;4832969;29;20058;-67
2022/06/13 13:55:49;;;;;;;27.98;6.68;;;;;;;35.62;39.54;97185.06;4826373;29;20350;-67
2022/06/13 13:58:48;;;;;;;34.03;6.80;;;;;;;35.57;40.27;97186.84;4834939;29;20052;-70
2022/06/13 14:01:39;;;;;;;34.30;6.60;;;;;;;35.50;38.80;97181.63;4853297;29;20054;-67